Time;durP1;ratioP1;P1;durP2;ratioP2;P2;SDS_P1;SDS_P2;PMS_P1;PMS_P2;Temp;Humidity;BMP_temperature;BMP_pressure;BME280_temperature;BME280_humidity;BME280_pressure;Samples;Min_cycle;Max_cycle;Signal;HPM_P1;HPM_P2
2021/03/01 00:01:12;;;;;;;11.63;8.77;;;4.70;97.40;;;;;;4943757;28;20224;-79
2021/03/01 00:03:39;;;;;;;14.02;9.85;;;4.60;97.30;;;;;;4942884;29;20192;-81
2021/03/01 00:06:05;;;;;;;15.60;8.25;;;4.60;97.70;;;;;;4942132;28;20236;-80
2021/03/01 00:08:32;;;;;;;18.00;9.40;;;4.60;97.40;;;;;;4944970;29;20608;-77
2021/03/01 00:10:58;;;;;;;15.15;9.00;;;4.50;97.60;;;;;;4943708;29;20259;-80
2021/03/01 00:13:25;;;;;;;15.35;10.25;;;4.50;97.40;;;;;;4946075;29;20224;-81
2021/03/01 00:15:54;;;;;;;11.95;8.15;;;4.40;97.50;;;;;;4944106;29;20236;-80
2021/03/01 00:18:20;;;;;;;14.23;9.55;;;4.40;98.00;;;;;;4944851;29;20805;-81
2021/03/01 00:20:47;;;;;;;10.50;9.05;;;4.40;97.80;;;;;;4943500;29;20308;-79
2021/03/01 00:23:13;;;;;;;12.40;8.85;;;4.40;97.50;;;;;;4942682;29;20200;-81
2021/03/01 00:25:41;;;;;;;10.18;8.48;;;4.40;97.20;;;;;;4925990;29;20197;-78
2021/03/01 00:28:09;;;;;;;13.02;8.93;;;4.40;97.30;;;;;;4944153;29;20193;-81
2021/03/01 00:30:37;;;;;;;11.00;9.50;;;4.40;96.70;;;;;;4943362;29;20185;-79
2021/03/01 00:33:04;;;;;;;11.10;9.35;;;4.30;96.70;;;;;;4944003;29;20220;-81
2021/03/01 00:35:31;;;;;;;12.57;9.43;;;4.20;96.70;;;;;;4942793;29;20251;-80
2021/03/01 00:37:57;;;;;;;12.13;8.38;;;4.10;97.10;;;;;;4943169;29;20205;-76
2021/03/01 00:40:24;;;;;;;12.05;8.30;;;4.10;98.00;;;;;;4920871;29;20177;-80
2021/03/01 00:42:51;;;;;;;13.68;9.48;;;4.00;96.50;;;;;;4929426;29;20540;-81
2021/03/01 00:45:18;;;;;;;14.20;8.30;;;3.90;97.00;;;;;;4943849;29;20193;-81
2021/03/01 00:47:45;;;;;;;12.95;9.45;;;3.90;97.20;;;;;;4932340;29;20259;-79
2021/03/01 00:50:13;;;;;;;12.27;8.02;;;3.90;96.70;;;;;;4940479;29;20212;-80
2021/03/01 00:52:41;;;;;;;14.38;8.80;;;3.90;96.70;;;;;;4929653;29;20224;-81
2021/03/01 00:55:09;;;;;;;11.63;10.07;;;3.80;97.70;;;;;;4945960;29;20212;-81
2021/03/01 00:57:36;;;;;;;11.98;8.63;;;3.90;96.90;;;;;;4945156;29;20236;-80
2021/03/01 01:00:14;;;;;;;11.70;7.88;;;3.80;96.50;;;;;;4946681;29;20180;-78
2021/03/01 01:02:46;;;;;;;9.52;8.05;;;3.70;97.40;;;;;;4945910;29;20275;-81
2021/03/01 01:05:29;;;;;;;9.52;7.80;;;3.70;96.90;;;;;;4929624;29;20211;-77
2021/03/01 01:07:57;;;;;;;9.43;8.15;;;3.60;96.50;;;;;;4947516;29;20267;-81
2021/03/01 01:10:23;;;;;;;12.65;9.73;;;3.60;97.70;;;;;;4929316;29;20767;-79
2021/03/01 01:12:50;;;;;;;12.82;9.40;;;3.60;97.60;;;;;;4946930;29;20233;-80
2021/03/01 01:15:17;;;;;;;11.57;8.40;;;3.60;97.00;;;;;;4946393;29;20209;-77
2021/03/01 01:17:43;;;;;;;13.52;8.82;;;3.50;97.20;;;;;;4946569;28;20259;-80
2021/03/01 01:20:11;;;;;;;14.27;9.02;;;3.40;98.40;;;;;;4947289;29;20256;-78
2021/03/01 01:22:38;;;;;;;12.93;8.90;;;3.40;98.90;;;;;;4946096;28;20220;-79
2021/03/01 01:25:06;;;;;;;12.15;9.23;;;3.50;99.10;;;;;;4946984;29;20189;-81
2021/03/01 01:27:33;;;;;;;13.32;7.90;;;3.60;98.80;;;;;;4947435;29;20228;-79
2021/03/01 01:29:59;;;;;;;15.20;10.18;;;3.70;98.50;;;;;;4946214;29;20759;-81
2021/03/01 01:32:26;;;;;;;16.58;9.60;;;3.80;98.10;;;;;;4946252;28;20251;-79
2021/03/01 01:34:52;;;;;;;14.60;8.90;;;3.90;97.80;;;;;;4946301;29;20264;-80
2021/03/01 01:37:19;;;;;;;12.38;8.48;;;3.90;97.60;;;;;;4946125;29;20240;-81
2021/03/01 01:39:46;;;;;;;13.25;9.73;;;3.90;97.40;;;;;;4944829;29;20296;-80
2021/03/01 01:42:14;;;;;;;19.13;9.57;;;3.90;97.30;;;;;;4946749;29;20248;-79
2021/03/01 01:44:40;;;;;;;13.93;7.60;;;3.90;97.70;;;;;;4947006;29;20634;-80
2021/03/01 01:47:07;;;;;;;13.45;9.40;;;3.80;97.40;;;;;;4946046;29;20224;-79
2021/03/01 01:49:34;;;;;;;12.55;9.40;;;3.70;97.40;;;;;;4947479;29;20243;-78
2021/03/01 01:52:00;;;;;;;15.88;8.77;;;3.60;97.90;;;;;;4946400;29;20554;-80
2021/03/01 01:54:27;;;;;;;14.95;9.77;;;3.70;97.90;;;;;;4946082;29;20193;-79
2021/03/01 01:56:54;;;;;;;13.20;9.65;;;3.70;97.90;;;;;;4945606;29;20232;-77
2021/03/01 01:59:20;;;;;;;11.02;9.13;;;3.60;97.40;;;;;;4929317;29;20263;-80
2021/03/01 02:01:49;;;;;;;15.27;9.57;;;3.60;97.90;;;;;;4944697;28;20220;-79
2021/03/01 02:04:27;;;;;;;11.68;9.05;;;3.60;98.00;;;;;;4946431;29;20208;-78
2021/03/01 02:07:31;;;;;;;17.25;10.05;;;3.50;98.40;;;;;;4933558;29;21541;-79
2021/03/01 02:10:14;;;;;;;14.90;9.40;;;3.60;98.20;;;;;;4935670;29;20192;-79
2021/03/01 02:13:01;;;;;;;11.73;10.52;;;3.60;98.00;;;;;;4937495;29;20259;-80
2021/03/01 02:15:43;;;;;;;15.30;10.50;;;3.60;97.70;;;;;;4945108;29;20217;-81
2021/03/01 02:18:11;;;;;;;16.70;10.07;;;3.70;97.50;;;;;;4945106;29;20197;-79
2021/03/01 02:20:45;;;;;;;13.07;9.85;;;3.70;97.10;;;;;;4944433;29;20551;-81
2021/03/01 02:23:12;;;;;;;13.88;9.60;;;3.70;97.20;;;;;;4946889;29;20204;-78
2021/03/01 02:26:01;;;;;;;17.60;10.23;;;3.70;97.20;;;;;;4947177;29;20203;-78
2021/03/01 02:28:33;;;;;;;13.20;9.85;;;3.60;97.00;;;;;;4945129;29;20205;-80
2021/03/01 02:31:06;;;;;;;13.70;8.93;;;3.60;97.00;;;;;;4925989;29;20243;-81
2021/03/01 02:33:38;;;;;;;13.60;9.60;;;3.50;97.30;;;;;;4938749;29;20248;-80
2021/03/01 02:36:12;;;;;;;14.10;10.73;;;3.50;97.40;;;;;;4927399;29;20225;-77
2021/03/01 02:38:40;;;;;;;16.50;11.25;;;3.50;97.30;;;;;;4940962;29;20673;-80
2021/03/01 02:41:09;;;;;;;13.75;10.32;;;3.30;97.90;;;;;;4938024;29;20262;-80
2021/03/01 02:43:37;;;;;;;12.25;9.20;;;3.30;98.20;;;;;;4945424;29;20195;-79
2021/03/01 02:46:04;;;;;;;17.88;9.75;;;3.30;98.10;;;;;;4943823;29;20291;-80
2021/03/01 02:48:33;;;;;;;14.93;10.90;;;3.20;98.20;;;;;;4945524;29;20236;-79
2021/03/01 02:50:59;;;;;;;16.05;10.73;;;3.10;98.30;;;;;;4944885;29;20248;-80
2021/03/01 02:53:28;;;;;;;18.38;11.00;;;3.10;98.90;;;;;;4944433;29;20185;-77
2021/03/01 02:55:56;;;;;;;16.17;10.75;;;3.10;99.60;;;;;;4944877;29;20264;-81
2021/03/01 02:58:24;;;;;;;14.45;11.05;;;3.20;99.40;;;;;;4946333;29;20283;-81
2021/03/01 03:00:52;;;;;;;16.77;11.27;;;3.10;99.00;;;;;;4945014;28;20650;-80
2021/03/01 03:03:20;;;;;;;18.00;11.45;;;3.20;99.00;;;;;;4942441;29;20571;-80
2021/03/01 03:05:47;;;;;;;14.35;10.95;;;3.20;99.90;;;;;;4928095;29;20281;-81
2021/03/01 03:08:14;;;;;;;15.40;10.68;;;3.20;99.90;;;;;;4941817;29;20627;-81
2021/03/01 03:10:41;;;;;;;14.13;10.00;;;3.20;99.90;;;;;;4946985;29;20189;-80
2021/03/01 03:13:10;;;;;;;18.30;11.00;;;3.20;99.70;;;;;;4946537;29;20548;-81
2021/03/01 03:15:38;;;;;;;19.75;10.65;;;3.20;99.40;;;;;;4946663;28;20335;-79
2021/03/01 03:18:09;;;;;;;15.18;10.35;;;3.30;99.20;;;;;;4947318;29;20196;-81
2021/03/01 03:20:36;;;;;;;16.33;10.25;;;3.30;98.90;;;;;;4946247;29;20244;-81
2021/03/01 03:23:03;;;;;;;17.05;11.50;;;3.30;98.80;;;;;;4947007;29;20275;-79
2021/03/01 03:25:30;;;;;;;15.60;10.02;;;3.30;98.70;;;;;;4939184;29;20258;-79
2021/03/01 03:27:56;;;;;;;16.50;10.80;;;3.40;98.50;;;;;;4946501;29;20209;-80
2021/03/01 03:30:24;;;;;;;14.98;10.63;;;3.40;98.50;;;;;;4944850;28;20200;-79
2021/03/01 03:32:53;;;;;;;18.05;11.05;;;3.40;98.50;;;;;;4936087;29;20227;-79
2021/03/01 03:35:20;;;;;;;13.65;10.00;;;3.40;98.80;;;;;;4943663;29;20216;-80
2021/03/01 03:38:02;;;;;;;15.23;10.40;;;3.30;98.20;;;;;;4946425;29;20216;-82
2021/03/01 03:40:29;;;;;;;15.43;9.82;;;3.30;98.30;;;;;;4945693;29;20280;-79
2021/03/01 03:42:58;;;;;;;20.88;10.90;;;3.30;98.20;;;;;;4947376;29;20263;-78
2021/03/01 03:45:25;;;;;;;14.60;9.75;;;3.40;98.10;;;;;;4944302;28;20240;-81
2021/03/01 03:47:55;;;;;;;14.63;9.95;;;3.30;98.10;;;;;;4946098;29;20224;-80
2021/03/01 03:50:23;;;;;;;13.20;10.45;;;3.30;98.00;;;;;;4946249;29;20192;-80
2021/03/01 03:52:56;;;;;;;16.80;10.57;;;3.30;98.00;;;;;;4929899;29;20669;-79
2021/03/01 03:55:23;;;;;;;15.70;11.02;;;3.30;98.00;;;;;;4940057;29;20198;-81
2021/03/01 03:57:59;;;;;;;15.57;12.20;;;3.30;98.10;;;;;;4927422;29;20575;-80
2021/03/01 04:00:27;;;;;;;12.82;9.60;;;3.20;98.00;;;;;;4933144;28;20219;-79
2021/03/01 04:02:57;;;;;;;14.32;11.13;;;3.20;97.90;;;;;;4942281;29;20196;-82
2021/03/01 04:05:25;;;;;;;16.35;10.68;;;3.20;97.90;;;;;;4943415;28;20671;-81
2021/03/01 04:07:53;;;;;;;15.00;10.68;;;3.20;98.00;;;;;;4945622;29;20295;-80
2021/03/01 04:10:21;;;;;;;12.27;9.95;;;3.20;97.70;;;;;;4930269;29;20219;-80
2021/03/01 04:12:52;;;;;;;11.98;9.73;;;3.20;97.90;;;;;;4942904;29;20677;-79
2021/03/01 04:15:19;;;;;;;12.48;9.40;;;3.10;97.80;;;;;;4927367;29;20224;-81
2021/03/01 04:17:46;;;;;;;14.65;10.25;;;3.10;97.80;;;;;;4943527;29;20240;-79
2021/03/01 04:20:18;;;;;;;15.18;9.68;;;3.10;97.90;;;;;;4943503;29;20736;-80
2021/03/01 04:22:46;;;;;;;14.40;9.93;;;3.10;98.00;;;;;;4943730;29;20221;-77
2021/03/01 04:25:14;;;;;;;13.10;10.30;;;3.10;98.00;;;;;;4940231;29;20280;-79
2021/03/01 04:27:41;;;;;;;17.05;10.20;;;3.10;98.00;;;;;;4928717;29;20271;-75
2021/03/01 04:30:10;;;;;;;11.80;9.52;;;3.10;98.00;;;;;;4935753;29;20674;-80
2021/03/01 04:32:41;;;;;;;14.35;9.85;;;3.00;97.90;;;;;;4947026;29;20234;-79
2021/03/01 04:35:11;;;;;;;10.95;9.60;;;3.00;97.80;;;;;;4948104;29;20212;-78
2021/03/01 04:37:37;;;;;;;9.93;8.90;;;3.00;97.90;;;;;;4947719;29;20262;-77
2021/03/01 04:40:04;;;;;;;14.05;10.60;;;3.00;97.90;;;;;;4928061;29;20556;-80
2021/03/01 04:42:33;;;;;;;12.63;9.48;;;3.00;97.80;;;;;;4928924;29;20300;-81
2021/03/01 04:45:00;;;;;;;13.32;9.80;;;3.00;97.80;;;;;;4912947;29;20256;-78
2021/03/01 04:47:28;;;;;;;14.18;9.90;;;3.00;97.80;;;;;;4930174;29;20220;-80
2021/03/01 04:49:56;;;;;;;15.00;11.07;;;2.90;98.10;;;;;;4932352;29;20225;-81
2021/03/01 04:52:25;;;;;;;15.40;10.75;;;2.90;98.00;;;;;;4942485;29;20255;-81
2021/03/01 04:54:52;;;;;;;16.55;10.23;;;2.90;98.10;;;;;;4921816;29;20193;-79
2021/03/01 04:57:19;;;;;;;12.00;9.48;;;2.90;98.10;;;;;;4943847;29;20251;-78
2021/03/01 04:59:47;;;;;;;15.35;11.65;;;2.90;98.20;;;;;;4946986;29;20535;-81
2021/03/01 05:02:15;;;;;;;12.40;9.23;;;2.90;98.10;;;;;;4945842;29;20313;-80
2021/03/01 05:04:42;;;;;;;13.40;9.63;;;2.90;98.00;;;;;;4945719;29;20201;-79
2021/03/01 05:07:09;;;;;;;11.50;9.65;;;2.80;97.90;;;;;;4945681;29;20284;-79
2021/03/01 05:09:38;;;;;;;14.10;10.10;;;2.80;97.90;;;;;;4945606;29;20188;-77
2021/03/01 05:12:05;;;;;;;18.10;8.82;;;2.80;97.90;;;;;;4946559;29;20220;-79
2021/03/01 05:14:32;;;;;;;12.98;9.52;;;2.80;98.00;;;;;;4946067;29;20185;-81
2021/03/01 05:17:02;;;;;;;14.05;9.60;;;2.80;98.00;;;;;;4946504;28;20235;-79
2021/03/01 05:19:31;;;;;;;13.35;9.55;;;2.80;98.00;;;;;;4944966;29;20201;-77
2021/03/01 05:21:57;;;;;;;13.88;10.23;;;2.80;98.00;;;;;;4929197;29;20284;-80
2021/03/01 05:24:24;;;;;;;9.70;8.60;;;2.70;98.00;;;;;;4946465;29;20220;-80
2021/03/01 05:26:51;;;;;;;18.33;12.18;;;2.70;98.10;;;;;;4927614;29;20239;-81
2021/03/01 05:29:18;;;;;;;13.50;9.55;;;2.70;98.10;;;;;;4946363;29;20205;-80
2021/03/01 05:31:45;;;;;;;13.00;9.07;;;2.70;98.10;;;;;;4946416;29;20261;-81
2021/03/01 05:34:11;;;;;;;17.65;11.23;;;2.70;98.00;;;;;;4945373;29;20200;-81
2021/03/01 05:36:38;;;;;;;12.30;8.32;;;2.60;98.00;;;;;;4944799;29;20319;-81
2021/03/01 05:39:05;;;;;;;12.98;8.25;;;2.60;98.00;;;;;;4946420;29;20189;-81
2021/03/01 05:41:34;;;;;;;11.18;9.10;;;2.60;98.00;;;;;;4930154;29;20239;-80
2021/03/01 05:44:00;;;;;;;12.57;9.45;;;2.60;98.10;;;;;;4943318;29;20196;-80
2021/03/01 05:46:27;;;;;;;13.55;9.85;;;2.60;98.10;;;;;;4944938;29;20694;-80
2021/03/01 05:48:54;;;;;;;15.00;10.15;;;2.60;98.20;;;;;;4946227;29;20217;-81
2021/03/01 05:51:24;;;;;;;16.13;10.02;;;2.60;98.20;;;;;;4929368;29;20224;-81
2021/03/01 05:53:55;;;;;;;14.85;8.75;;;2.60;98.20;;;;;;4945085;29;20199;-79
2021/03/01 05:56:22;;;;;;;19.30;9.10;;;2.60;98.20;;;;;;4943729;29;20232;-81
2021/03/01 05:58:50;;;;;;;15.85;9.93;;;2.50;98.20;;;;;;4944524;29;20193;-80
2021/03/01 06:01:17;;;;;;;16.17;9.65;;;2.50;98.20;;;;;;4945574;29;20234;-79
2021/03/01 06:03:44;;;;;;;10.25;8.23;;;2.50;98.20;;;;;;4946549;29;20489;-81
2021/03/01 06:06:12;;;;;;;14.57;8.50;;;2.50;98.20;;;;;;4944376;29;20290;-78
2021/03/01 06:08:40;;;;;;;12.27;9.00;;;2.50;98.10;;;;;;4944920;29;20177;-78
2021/03/01 06:11:23;;;;;;;13.15;8.70;;;2.50;98.10;;;;;;4936109;28;20221;-79
2021/03/01 06:13:51;;;;;;;14.80;9.43;;;2.50;98.20;;;;;;4944316;29;20261;-80
2021/03/01 06:16:17;;;;;;;11.27;9.20;;;2.50;98.40;;;;;;4943527;28;20229;-81
2021/03/01 06:18:45;;;;;;;15.35;9.45;;;2.40;98.40;;;;;;4937862;29;20197;-79
2021/03/01 06:21:17;;;;;;;15.57;11.15;;;2.40;98.40;;;;;;4925000;28;20245;-80
2021/03/01 06:23:45;;;;;;;17.02;10.80;;;2.40;98.40;;;;;;4944574;29;20200;-80
2021/03/01 06:26:23;;;;;;;17.83;11.05;;;2.40;99.20;;;;;;4938986;28;20230;-81
2021/03/01 06:28:52;;;;;;;17.15;10.43;;;2.30;98.40;;;;;;4945200;29;20189;-78
2021/03/01 06:31:42;;;;;;;19.17;11.05;;;2.30;98.40;;;;;;4931338;29;20220;-81
2021/03/01 06:34:33;;;;;;;18.35;11.60;;;2.30;98.30;;;;;;4943226;29;20259;-79
2021/03/01 06:37:05;;;;;;;16.05;10.38;;;2.30;98.20;;;;;;4939628;29;20236;-79
2021/03/01 06:39:36;;;;;;;21.08;11.82;;;2.30;98.00;;;;;;4941426;29;20227;-78
2021/03/01 06:42:18;;;;;;;22.40;12.75;;;2.30;98.40;;;;;;4942776;29;20225;-81
2021/03/01 06:44:56;;;;;;;16.63;10.80;;;2.20;98.60;;;;;;4943954;29;20192;-81
2021/03/01 06:47:51;;;;;;;15.60;9.80;;;2.20;99.20;;;;;;4937936;29;20276;-80
2021/03/01 06:50:43;;;;;;;16.70;11.23;;;2.30;99.20;;;;;;4940030;29;20185;-81
2021/03/01 06:53:10;;;;;;;16.45;10.45;;;2.30;99.20;;;;;;4944448;29;20255;-81
2021/03/01 06:56:02;;;;;;;14.02;9.63;;;2.20;99.40;;;;;;4942662;29;20405;-81
2021/03/01 06:58:34;;;;;;;16.92;9.60;;;2.20;99.90;;;;;;4943722;29;20588;-82
2021/03/01 07:01:04;;;;;;;19.75;11.43;;;2.20;99.60;;;;;;4943101;29;20263;-81
2021/03/01 07:03:31;;;;;;;16.50;10.13;;;2.30;99.40;;;;;;4926923;29;20189;-80
2021/03/01 07:06:01;;;;;;;17.48;10.35;;;2.30;99.80;;;;;;4942267;29;20224;-80
2021/03/01 07:08:31;;;;;;;14.38;10.07;;;2.40;99.90;;;;;;4943951;29;20189;-82
2021/03/01 07:10:59;;;;;;;15.77;9.20;;;2.40;99.90;;;;;;4943830;29;20231;-81
2021/03/01 07:13:29;;;;;;;14.93;10.55;;;2.50;99.90;;;;;;4945075;29;20201;-81
2021/03/01 07:15:58;;;;;;;13.27;10.48;;;2.50;99.90;;;;;;4944402;29;20844;-80
2021/03/01 07:18:26;;;;;;;15.75;10.82;;;2.50;99.90;;;;;;4945597;29;20188;-78
2021/03/01 07:20:54;;;;;;;16.17;10.13;;;2.50;99.90;;;;;;4934164;28;20295;-81
2021/03/01 07:23:21;;;;;;;28.45;14.88;;;2.60;99.90;;;;;;4943198;29;20193;-79
2021/03/01 07:25:49;;;;;;;33.90;14.20;;;2.60;99.90;;;;;;4943499;28;20212;-82
2021/03/01 07:28:20;;;;;;;40.13;17.25;;;2.70;99.90;;;;;;4942242;29;20200;-82
2021/03/01 07:30:49;;;;;;;23.30;14.93;;;2.80;99.90;;;;;;4945593;28;20622;-81
2021/03/01 07:33:16;;;;;;;24.20;15.18;;;2.90;99.90;;;;;;4944475;29;20204;-80
2021/03/01 07:35:45;;;;;;;20.10;12.75;;;2.90;99.90;;;;;;4942455;29;20228;-81
2021/03/01 07:38:12;;;;;;;30.05;12.52;;;2.90;99.90;;;;;;4934719;29;20192;-78
2021/03/01 07:40:38;;;;;;;21.65;13.60;;;2.90;99.90;;;;;;4938144;29;20207;-82
2021/03/01 07:43:07;;;;;;;21.80;12.93;;;3.00;99.90;;;;;;4941930;29;20220;-80
2021/03/01 07:45:33;;;;;;;16.17;12.60;;;3.10;99.90;;;;;;4941888;29;20248;-76
2021/03/01 07:48:12;;;;;;;16.25;12.20;;;3.10;99.90;;;;;;4941162;29;20441;-81
2021/03/01 07:50:41;;;;;;;21.85;16.05;;;3.20;99.90;;;;;;4941355;29;20227;-82
2021/03/01 07:53:44;;;;;;;18.50;14.38;;;3.20;99.90;;;;;;4944252;29;20189;-80
2021/03/01 07:56:23;;;;;;;18.15;13.15;;;3.30;99.90;;;;;;4941682;29;20299;-81
2021/03/01 07:59:01;;;;;;;25.88;12.65;;;3.40;99.90;;;;;;4943696;29;20251;-78
2021/03/01 08:01:28;;;;;;;20.17;12.75;;;3.50;99.90;;;;;;4943372;29;20232;-79
2021/03/01 08:03:56;;;;;;;19.63;14.15;;;3.60;99.90;;;;;;4944860;29;20275;-79
2021/03/01 08:06:23;;;;;;;17.50;12.00;;;3.70;99.90;;;;;;4944910;29;20224;-81
2021/03/01 08:08:53;;;;;;;20.50;13.73;;;3.80;99.90;;;;;;4944431;29;20216;-79
2021/03/01 08:11:42;;;;;;;20.50;14.18;;;3.90;99.90;;;;;;4921203;29;20232;-78
2021/03/01 08:14:30;;;;;;;23.90;15.63;;;4.00;99.90;;;;;;4929792;29;20195;-79
2021/03/01 08:17:24;;;;;;;18.77;13.50;;;4.00;99.90;;;;;;4945686;29;20255;-82
2021/03/01 08:19:52;;;;;;;18.00;13.38;;;4.10;99.90;;;;;;4942322;29;20225;-80
2021/03/01 08:22:19;;;;;;;19.35;13.30;;;4.20;99.90;;;;;;4944719;28;20284;-82
2021/03/01 08:24:47;;;;;;;16.67;12.85;;;4.30;99.90;;;;;;4928120;29;20227;-82
2021/03/01 08:27:26;;;;;;;26.50;13.13;;;4.40;99.90;;;;;;4928999;29;20232;-79
2021/03/01 08:30:32;;;;;;;16.23;12.52;;;4.40;99.90;;;;;;4947238;29;20316;-81
2021/03/01 08:33:10;;;;;;;15.73;14.07;;;4.40;99.90;;;;;;4946558;29;20635;-79
2021/03/01 08:35:40;;;;;;;13.60;10.57;;;4.50;99.90;;;;;;4928315;29;20216;-79
2021/03/01 08:38:08;;;;;;;18.05;10.43;;;4.70;99.90;;;;;;4944112;29;20196;-80
2021/03/01 08:40:35;;;;;;;21.55;11.45;;;4.80;99.90;;;;;;4944838;29;20296;-80
2021/03/01 08:43:06;;;;;;;13.90;10.07;;;5.00;99.90;;;;;;4946322;29;20212;-80
2021/03/01 08:45:40;;;;;;;16.67;11.55;;;5.00;99.90;;;;;;4945353;29;20199;-81
2021/03/01 08:48:16;;;;;;;17.90;12.20;;;5.20;99.90;;;;;;4926835;29;20207;-81
2021/03/01 08:50:44;;;;;;;17.55;11.88;;;5.30;99.90;;;;;;4943275;28;20810;-80
2021/03/01 08:53:26;;;;;;;17.05;13.48;;;5.40;99.90;;;;;;4943750;29;20239;-77
2021/03/01 08:55:53;;;;;;;13.75;11.82;;;5.40;99.90;;;;;;4925901;29;20233;-81
2021/03/01 08:58:21;;;;;;;17.73;10.95;;;5.60;99.90;;;;;;4923495;29;20726;-81
2021/03/01 09:01:03;;;;;;;15.32;9.05;;;5.60;99.90;;;;;;4937000;29;20224;-80
2021/03/01 09:03:37;;;;;;;15.30;10.82;;;5.60;99.90;;;;;;4939603;29;20188;-79
2021/03/01 09:06:15;;;;;;;12.15;10.32;;;5.70;99.90;;;;;;4924716;29;20261;-80
2021/03/01 09:08:47;;;;;;;14.63;10.90;;;5.70;99.90;;;;;;4922305;29;20189;-80
2021/03/01 09:11:18;;;;;;;12.48;9.30;;;5.80;99.90;;;;;;4929638;29;20237;-80
2021/03/01 09:13:49;;;;;;;12.57;9.23;;;6.00;99.90;;;;;;4936738;29;20651;-81
2021/03/01 09:16:18;;;;;;;17.52;10.70;;;6.00;99.90;;;;;;4943247;29;20299;-79
2021/03/01 09:18:48;;;;;;;13.63;9.02;;;6.00;99.90;;;;;;4942890;29;20264;-81
2021/03/01 09:21:17;;;;;;;14.15;9.93;;;6.10;99.90;;;;;;4929506;29;20232;-80
2021/03/01 09:23:50;;;;;;;14.98;10.50;;;6.20;99.90;;;;;;4929389;29;20211;-80
2021/03/01 09:26:30;;;;;;;16.38;10.57;;;6.10;99.90;;;;;;4943635;29;20671;-80
2021/03/01 09:29:05;;;;;;;14.48;9.98;;;6.20;99.90;;;;;;4945632;29;20181;-78
2021/03/01 09:31:44;;;;;;;12.57;9.63;;;6.30;99.90;;;;;;4944263;29;20223;-76
2021/03/01 09:34:13;;;;;;;13.73;8.77;;;6.30;99.90;;;;;;4944759;29;20193;-81
2021/03/01 09:36:47;;;;;;;11.05;9.10;;;6.50;99.90;;;;;;4930530;29;20220;-79
2021/03/01 09:39:22;;;;;;;14.00;9.95;;;6.70;99.90;;;;;;4941052;29;20208;-80
2021/03/01 09:41:50;;;;;;;12.35;8.85;;;6.90;99.90;;;;;;4942407;28;20275;-81
2021/03/01 09:44:25;;;;;;;17.00;9.55;;;7.00;99.90;;;;;;4945787;29;20219;-81
2021/03/01 09:46:55;;;;;;;14.48;9.38;;;7.20;99.90;;;;;;4946581;29;20231;-79
2021/03/01 09:49:22;;;;;;;12.13;9.55;;;7.40;99.90;;;;;;4919408;29;20197;-74
2021/03/01 09:51:50;;;;;;;18.33;10.50;;;7.50;99.90;;;;;;4934767;29;20646;-80
2021/03/01 09:54:21;;;;;;;15.98;10.77;;;7.60;99.90;;;;;;4944866;29;20271;-80
2021/03/01 09:56:53;;;;;;;11.55;8.90;;;7.70;99.90;;;;;;4945419;29;20255;-78
2021/03/01 09:59:34;;;;;;;12.93;10.32;;;7.70;99.90;;;;;;4943973;29;20228;-79
2021/03/01 10:02:14;;;;;;;14.90;9.55;;;8.20;99.90;;;;;;4942643;29;20284;-79
2021/03/01 10:04:41;;;;;;;10.52;8.77;;;8.60;99.80;;;;;;4934767;29;20200;-80
2021/03/01 10:07:28;;;;;;;12.30;8.68;;;8.70;98.70;;;;;;4947966;29;20224;-79
2021/03/01 10:09:56;;;;;;;17.15;10.38;;;8.70;99.10;;;;;;4945353;29;20196;-80
2021/03/01 10:12:24;;;;;;;15.18;10.73;;;8.70;97.90;;;;;;4941836;28;20255;-78
2021/03/01 10:14:59;;;;;;;16.00;9.50;;;8.80;98.90;;;;;;4943948;29;20268;-80
2021/03/01 10:17:31;;;;;;;10.38;8.30;;;8.80;98.40;;;;;;4927580;28;20235;-80
2021/03/01 10:20:08;;;;;;;15.00;9.13;;;9.00;98.90;;;;;;4936226;29;20202;-80
2021/03/01 10:23:11;;;;;;;13.23;8.95;;;9.00;96.90;;;;;;4934195;29;20224;-77
2021/03/01 10:26:21;;;;;;;10.93;9.82;;;9.20;96.80;;;;;;4944089;29;20220;-79
2021/03/01 10:28:59;;;;;;;11.38;8.35;;;9.20;98.00;;;;;;4946716;29;20226;-80
2021/03/01 10:31:38;;;;;;;11.82;9.70;;;9.20;95.10;;;;;;4933558;29;20260;-80
2021/03/01 10:34:15;;;;;;;13.27;8.80;;;9.20;95.30;;;;;;4941984;29;20297;-79
2021/03/01 10:36:52;;;;;;;10.07;8.60;;;9.20;94.10;;;;;;4908413;29;20291;-81
2021/03/01 10:39:46;;;;;;;13.15;8.95;;;9.10;93.90;;;;;;4946739;29;20263;-80
2021/03/01 10:42:21;;;;;;;11.45;8.18;;;9.00;95.10;;;;;;4943392;29;20228;-80
2021/03/01 10:45:03;;;;;;;10.23;7.90;;;9.00;94.70;;;;;;4907718;29;20224;-80
2021/03/01 10:47:30;;;;;;;12.98;9.10;;;8.90;94.20;;;;;;4925917;29;20237;-81
2021/03/01 10:50:18;;;;;;;20.65;8.77;;;8.90;94.10;;;;;;4927260;29;20207;-80
2021/03/01 10:52:45;;;;;;;12.65;8.75;;;8.90;94.80;;;;;;4922327;29;20229;-77
2021/03/01 10:55:14;;;;;;;9.55;8.60;;;9.00;95.20;;;;;;4928905;29;20208;-78
2021/03/01 10:57:41;;;;;;;12.27;8.60;;;9.10;95.00;;;;;;4943291;28;20263;-81
2021/03/01 11:00:08;;;;;;;11.98;8.43;;;9.20;94.30;;;;;;4942739;29;20208;-79
2021/03/01 11:02:34;;;;;;;12.05;8.65;;;9.20;92.90;;;;;;4938182;29;20220;-80
2021/03/01 11:05:01;;;;;;;12.48;8.57;;;9.10;93.70;;;;;;4926568;29;20233;-81
2021/03/01 11:07:28;;;;;;;13.90;8.63;;;9.00;93.50;;;;;;4942524;29;20333;-79
2021/03/01 11:09:55;;;;;;;12.55;8.75;;;9.10;93.80;;;;;;4943175;29;20196;-78
2021/03/01 11:12:21;;;;;;;11.75;8.52;;;9.10;94.20;;;;;;4942426;29;20537;-81
2021/03/01 11:14:47;;;;;;;11.27;8.05;;;9.10;94.50;;;;;;4942171;29;20188;-80
2021/03/01 11:17:14;;;;;;;12.40;8.52;;;9.20;93.90;;;;;;4942275;29;20813;-79
2021/03/01 11:19:41;;;;;;;13.80;10.50;;;9.20;94.10;;;;;;4941044;29;20226;-76
2021/03/01 11:22:08;;;;;;;14.43;9.30;;;9.30;93.80;;;;;;4941261;29;20221;-80
2021/03/01 11:24:35;;;;;;;13.32;9.55;;;9.30;93.00;;;;;;4939520;29;20189;-79
2021/03/01 11:27:03;;;;;;;14.27;9.18;;;9.40;93.00;;;;;;4940892;29;20236;-80
2021/03/01 11:29:29;;;;;;;12.75;8.48;;;9.50;93.10;;;;;;4945709;29;20192;-79
2021/03/01 11:31:57;;;;;;;14.40;9.30;;;9.60;93.10;;;;;;4940931;28;20306;-81
2021/03/01 11:34:24;;;;;;;14.27;9.35;;;9.70;93.00;;;;;;4941812;29;20183;-81
2021/03/01 11:36:51;;;;;;;8.95;8.00;;;9.80;91.80;;;;;;4948010;29;20285;-81
2021/03/01 11:39:18;;;;;;;12.98;9.60;;;9.80;92.20;;;;;;4945863;29;20200;-79
2021/03/01 11:41:45;;;;;;;12.98;8.60;;;9.80;91.10;;;;;;4924196;29;20236;-77
2021/03/01 11:44:12;;;;;;;14.05;9.65;;;9.70;91.90;;;;;;4928005;29;20196;-79
2021/03/01 11:46:39;;;;;;;13.85;8.48;;;9.60;92.20;;;;;;4942955;28;20270;-80
2021/03/01 11:49:06;;;;;;;10.55;8.40;;;9.60;91.80;;;;;;4919626;29;20280;-80
2021/03/01 11:51:33;;;;;;;19.42;10.07;;;9.70;92.20;;;;;;4935370;29;20343;-78
2021/03/01 11:54:00;;;;;;;14.38;8.65;;;9.70;91.90;;;;;;4941913;29;20202;-78
2021/03/01 11:56:27;;;;;;;12.43;9.25;;;9.70;93.40;;;;;;4937563;29;20229;-78
2021/03/01 11:58:54;;;;;;;12.48;9.40;;;9.70;93.20;;;;;;4927121;29;20202;-80
2021/03/01 12:01:20;;;;;;;11.93;8.02;;;9.70;93.60;;;;;;4944171;28;20222;-81
2021/03/01 12:03:47;;;;;;;14.70;9.82;;;9.80;93.20;;;;;;4944970;29;20190;-80
2021/03/01 12:06:14;;;;;;;11.87;8.97;;;9.90;92.10;;;;;;4942067;29;20228;-78
2021/03/01 12:08:42;;;;;;;15.35;9.38;;;9.90;92.80;;;;;;4942906;29;20479;-80
2021/03/01 12:11:09;;;;;;;12.90;9.23;;;9.90;93.50;;;;;;4923626;28;20238;-80
2021/03/01 12:13:35;;;;;;;11.10;8.50;;;10.00;93.20;;;;;;4942175;29;20452;-78
2021/03/01 12:16:02;;;;;;;13.07;8.60;;;10.10;91.70;;;;;;4940973;28;20510;-79
2021/03/01 12:18:30;;;;;;;11.27;8.93;;;10.10;91.60;;;;;;4936621;29;20453;-79
2021/03/01 12:20:58;;;;;;;12.37;8.50;;;10.10;92.10;;;;;;4938199;29;20531;-76
2021/03/01 12:23:25;;;;;;;12.73;9.77;;;10.20;92.10;;;;;;4944623;29;20443;-81
2021/03/01 12:25:52;;;;;;;12.07;8.60;;;10.20;91.10;;;;;;4943126;29;20524;-78
2021/03/01 12:28:18;;;;;;;12.40;9.20;;;10.30;91.90;;;;;;4945623;29;20452;-81
2021/03/01 12:30:45;;;;;;;11.93;8.47;;;10.20;91.80;;;;;;4962366;23;20996;-77
2021/03/01 12:33:12;;;;;;;11.57;8.10;;;10.20;91.80;;;;;;4953529;29;20844;-77
2021/03/01 12:35:39;;;;;;;9.93;8.40;;;10.20;91.80;;;;;;4934971;29;20467;-77
2021/03/01 12:38:06;;;;;;;10.50;8.00;;;10.40;89.40;;;;;;4934018;29;20513;-77
2021/03/01 12:40:33;;;;;;;11.47;7.50;;;10.50;86.80;;;;;;4918311;29;20452;-76
2021/03/01 12:43:01;;;;;;;14.03;7.60;;;10.60;90.70;;;;;;4934266;29;20432;-76
2021/03/01 12:45:28;;;;;;;13.97;8.40;;;10.60;87.90;;;;;;4933707;29;20799;-76
2021/03/01 12:47:55;;;;;;;14.50;8.37;;;10.60;88.00;;;;;;4937500;29;20465;-76
2021/03/01 12:50:22;;;;;;;11.30;9.70;;;10.50;89.00;;;;;;4937249;29;20494;-76
2021/03/01 12:52:48;;;;;;;12.67;8.00;;;10.80;87.60;;;;;;4937928;29;20454;-76
2021/03/01 12:55:17;;;;;;;10.97;8.60;;;10.70;88.30;;;;;;4937594;29;20444;-76
2021/03/01 12:57:44;;;;;;;9.70;8.43;;;10.60;89.50;;;;;;4936440;29;20503;-76
2021/03/01 13:00:11;;;;;;;11.50;8.70;;;10.60;88.20;;;;;;4920439;29;20429;-76